This is the latest recevied weather packets stored in our database for station/object KQ5S-13. If no packets are shown the sender has not sent any weather packets the latest 10 day(s).
| Time | Temp. | Humidity | Pressure | Rain* | Wind** | Luminosity | Snow |
|---|---|---|---|---|---|---|---|
| 1777869617 | 8.33° C | 84% | 1017.6 hPa | 0 mm | - | 0 W/m² | - |
| 1777867818 | 8.89° C | 82% | 1017.9 hPa | 0 mm | - | 0 W/m² | - |
| 1777867217 | 8.89° C | 82% | 1018 hPa | 0 mm | - | 0 W/m² | - |
| 1777864817 | 10° C | 80% | 1018.3 hPa | 0 mm | - | 0 W/m² | - |
| 1777863017 | 10.56° C | 76% | 1018 hPa | 0 mm | - | 0 W/m² | - |
| 1777858817 | 12.78° C | 70% | 1017.4 hPa | 0 mm | - | 0 W/m² | - |
| 1777858217 | 13.33° C | 68% | 1017.4 hPa | 0 mm | - | 0 W/m² | - |
| 1777855257 | 15.56° C | 57% | 1017.2 hPa | 0 mm | - | 0 W/m² | - |
| 1777853417 | 17.22° C | 46% | 1017.1 hPa | 0 mm | - | 13 W/m² | - |
| 1777850416 | 18.89° C | 41% | 1017 hPa | 0 mm | - | 38 W/m² | - |
| 1777849216 | 19.44° C | 39% | 1017.1 hPa | 0 mm | - | 48 W/m² | - |
| 1777846816 | 21.11° C | 33% | 1017.5 hPa | 0 mm | - | 285 W/m² | - |
| 1777846216 | 21.11° C | 34% | 1017.6 hPa | 0 mm | - | 278 W/m² | - |
| 1777845616 | 21.11° C | 37% | 1017.6 hPa | 0 mm | - | 304 W/m² | - |
| 1777843236 | 20.56° C | 40% | 1018 hPa | 0 mm | - | 179 W/m² | - |
| 1777841416 | 19.44° C | 46% | 1018.2 hPa | 0 mm | - | 183 W/m² | - |
| 1777840217 | 18.89° C | 45% | 1018.5 hPa | 0 mm | - | 58 W/m² | - |
| 1777839016 | 18.33° C | 45% | 1018.7 hPa | 0 mm | - | 120 W/m² | - |
| 1777835416 | 17.78° C | 48% | 1019.8 hPa | 0 mm | - | 62 W/m² | - |
| 1777830016 | 16.67° C | 49% | 1021 hPa | 0 mm | - | 84 W/m² | - |
| 1777821636 | 16.11° C | 56% | 1021.8 hPa | 0 mm | - | 924 W/m² | - |
| 1777818016 | 13.33° C | 65% | 1021.7 hPa | 0 mm | - | 735 W/m² | - |
| 1777816836 | 12.78° C | 68% | 1021.6 hPa | 0 mm | - | 674 W/m² | - |
| 1777815616 | 12.22° C | 70% | 1021.6 hPa | 0 mm | - | 605 W/m² | - |
| 1777813815 | 11.11° C | 74% | 1021.5 hPa | 0 mm | - | 494 W/m² | - |
* Rain latest hour (hover to see other rain measurements)
** Current wind speed in m/s (hover to see current wind gust speed)